sensor_id;sensor_type;location;lat;lon;timestamp;P1;durP1;ratioP1;P2;durP2;ratioP2
31206;SDS011;17834;52.992;8.856;2024-03-17T00:01:45;8.48;;;2.42;;
31206;SDS011;17834;52.992;8.856;2024-03-17T00:04:10;10.75;;;3.60;;
31206;SDS011;17834;52.992;8.856;2024-03-17T00:06:36;6.22;;;2.67;;
31206;SDS011;17834;52.992;8.856;2024-03-17T00:09:02;6.95;;;2.70;;
31206;SDS011;17834;52.992;8.856;2024-03-17T00:11:31;12.52;;;2.38;;
31206;SDS011;17834;52.992;8.856;2024-03-17T00:14:00;7.70;;;2.80;;
31206;SDS011;17834;52.992;8.856;2024-03-17T00:16:26;9.68;;;2.17;;
31206;SDS011;17834;52.992;8.856;2024-03-17T00:18:52;11.02;;;2.75;;
31206;SDS011;17834;52.992;8.856;2024-03-17T00:21:17;6.97;;;2.20;;
31206;SDS011;17834;52.992;8.856;2024-03-17T00:23:44;9.73;;;2.85;;
31206;SDS011;17834;52.992;8.856;2024-03-17T00:26:14;7.97;;;2.75;;
31206;SDS011;17834;52.992;8.856;2024-03-17T00:28:40;9.63;;;2.67;;
31206;SDS011;17834;52.992;8.856;2024-03-17T00:31:05;8.73;;;2.60;;
31206;SDS011;17834;52.992;8.856;2024-03-17T00:33:30;5.78;;;2.70;;
31206;SDS011;17834;52.992;8.856;2024-03-17T00:35:56;7.63;;;2.20;;
31206;SDS011;17834;52.992;8.856;2024-03-17T00:38:23;12.82;;;2.80;;
31206;SDS011;17834;52.992;8.856;2024-03-17T00:40:49;6.57;;;2.63;;
31206;SDS011;17834;52.992;8.856;2024-03-17T00:43:15;8.38;;;2.10;;
31206;SDS011;17834;52.992;8.856;2024-03-17T00:45:40;12.00;;;2.85;;
31206;SDS011;17834;52.992;8.856;2024-03-17T00:48:06;8.25;;;2.45;;
31206;SDS011;17834;52.992;8.856;2024-03-17T00:50:32;7.95;;;2.40;;
31206;SDS011;17834;52.992;8.856;2024-03-17T00:52:58;3.50;;;1.88;;
31206;SDS011;17834;52.992;8.856;2024-03-17T00:55:24;13.82;;;2.80;;
31206;SDS011;17834;52.992;8.856;2024-03-17T00:57:49;6.28;;;2.20;;
31206;SDS011;17834;52.992;8.856;2024-03-17T01:00:15;5.63;;;2.88;;
31206;SDS011;17834;52.992;8.856;2024-03-17T01:02:41;4.18;;;2.10;;
31206;SDS011;17834;52.992;8.856;2024-03-17T01:05:07;3.90;;;2.30;;
31206;SDS011;17834;52.992;8.856;2024-03-17T01:07:33;8.48;;;2.92;;
31206;SDS011;17834;52.992;8.856;2024-03-17T01:09:59;8.05;;;2.80;;
31206;SDS011;17834;52.992;8.856;2024-03-17T01:12:25;10.85;;;3.22;;
31206;SDS011;17834;52.992;8.856;2024-03-17T01:14:51;8.00;;;2.10;;
31206;SDS011;17834;52.992;8.856;2024-03-17T01:17:16;4.53;;;2.55;;
31206;SDS011;17834;52.992;8.856;2024-03-17T01:19:44;7.72;;;2.42;;
31206;SDS011;17834;52.992;8.856;2024-03-17T01:22:10;11.70;;;2.60;;
31206;SDS011;17834;52.992;8.856;2024-03-17T01:24:35;4.50;;;2.40;;
31206;SDS011;17834;52.992;8.856;2024-03-17T01:27:02;8.25;;;2.65;;
31206;SDS011;17834;52.992;8.856;2024-03-17T01:29:27;9.45;;;2.72;;
31206;SDS011;17834;52.992;8.856;2024-03-17T01:31:53;6.43;;;2.08;;
31206;SDS011;17834;52.992;8.856;2024-03-17T01:34:19;8.93;;;3.92;;
31206;SDS011;17834;52.992;8.856;2024-03-17T01:36:45;8.30;;;2.33;;
31206;SDS011;17834;52.992;8.856;2024-03-17T01:39:10;10.27;;;2.88;;
31206;SDS011;17834;52.992;8.856;2024-03-17T01:41:36;4.72;;;2.42;;
31206;SDS011;17834;52.992;8.856;2024-03-17T01:44:02;15.48;;;3.28;;
31206;SDS011;17834;52.992;8.856;2024-03-17T01:46:27;17.38;;;3.20;;
31206;SDS011;17834;52.992;8.856;2024-03-17T01:48:53;5.97;;;2.60;;
31206;SDS011;17834;52.992;8.856;2024-03-17T01:51:19;8.65;;;2.67;;
31206;SDS011;17834;52.992;8.856;2024-03-17T01:53:45;6.75;;;2.25;;
31206;SDS011;17834;52.992;8.856;2024-03-17T01:56:11;6.05;;;2.42;;
31206;SDS011;17834;52.992;8.856;2024-03-17T01:58:36;7.07;;;2.88;;
31206;SDS011;17834;52.992;8.856;2024-03-17T02:01:02;8.65;;;2.58;;
31206;SDS011;17834;52.992;8.856;2024-03-17T02:03:29;10.50;;;2.83;;
31206;SDS011;17834;52.992;8.856;2024-03-17T02:05:55;5.53;;;2.15;;
31206;SDS011;17834;52.992;8.856;2024-03-17T02:08:20;4.72;;;2.00;;
31206;SDS011;17834;52.992;8.856;2024-03-17T02:10:51;7.10;;;2.63;;
31206;SDS011;17834;52.992;8.856;2024-03-17T02:13:18;6.45;;;2.10;;
31206;SDS011;17834;52.992;8.856;2024-03-17T02:15:44;12.00;;;2.70;;
31206;SDS011;17834;52.992;8.856;2024-03-17T02:18:09;4.22;;;2.67;;
31206;SDS011;17834;52.992;8.856;2024-03-17T02:20:35;14.25;;;3.50;;
31206;SDS011;17834;52.992;8.856;2024-03-17T02:23:33;4.45;;;2.45;;
31206;SDS011;17834;52.992;8.856;2024-03-17T02:25:58;13.80;;;3.60;;
31206;SDS011;17834;52.992;8.856;2024-03-17T02:28:24;9.60;;;2.20;;
31206;SDS011;17834;52.992;8.856;2024-03-17T02:30:49;8.77;;;2.60;;
31206;SDS011;17834;52.992;8.856;2024-03-17T02:33:15;12.27;;;2.85;;
31206;SDS011;17834;52.992;8.856;2024-03-17T02:35:40;4.65;;;2.83;;
31206;SDS011;17834;52.992;8.856;2024-03-17T02:38:06;6.80;;;2.78;;
31206;SDS011;17834;52.992;8.856;2024-03-17T02:40:36;9.73;;;2.70;;
31206;SDS011;17834;52.992;8.856;2024-03-17T02:43:02;6.60;;;2.80;;
31206;SDS011;17834;52.992;8.856;2024-03-17T02:45:27;8.43;;;3.13;;
31206;SDS011;17834;52.992;8.856;2024-03-17T02:47:53;5.25;;;2.40;;
31206;SDS011;17834;52.992;8.856;2024-03-17T02:50:19;3.90;;;2.47;;
31206;SDS011;17834;52.992;8.856;2024-03-17T02:52:44;6.93;;;2.47;;
31206;SDS011;17834;52.992;8.856;2024-03-17T02:55:10;4.05;;;2.20;;
31206;SDS011;17834;52.992;8.856;2024-03-17T02:57:35;9.35;;;3.03;;
31206;SDS011;17834;52.992;8.856;2024-03-17T03:00:01;9.60;;;2.60;;
31206;SDS011;17834;52.992;8.856;2024-03-17T03:02:29;8.20;;;2.85;;
31206;SDS011;17834;52.992;8.856;2024-03-17T03:04:54;5.13;;;2.60;;
31206;SDS011;17834;52.992;8.856;2024-03-17T03:07:20;10.27;;;2.88;;
31206;SDS011;17834;52.992;8.856;2024-03-17T03:09:45;7.32;;;3.30;;
31206;SDS011;17834;52.992;8.856;2024-03-17T03:12:12;12.27;;;3.28;;
31206;SDS011;17834;52.992;8.856;2024-03-17T03:14:38;8.18;;;3.00;;
31206;SDS011;17834;52.992;8.856;2024-03-17T03:17:03;6.45;;;3.67;;
31206;SDS011;17834;52.992;8.856;2024-03-17T03:19:28;9.95;;;3.03;;
31206;SDS011;17834;52.992;8.856;2024-03-17T03:21:55;8.70;;;3.15;;
31206;SDS011;17834;52.992;8.856;2024-03-17T03:24:21;7.50;;;2.83;;
31206;SDS011;17834;52.992;8.856;2024-03-17T03:26:46;7.80;;;2.40;;
31206;SDS011;17834;52.992;8.856;2024-03-17T03:29:13;6.05;;;2.97;;
31206;SDS011;17834;52.992;8.856;2024-03-17T03:31:39;8.75;;;3.13;;
31206;SDS011;17834;52.992;8.856;2024-03-17T03:34:05;6.00;;;3.38;;
31206;SDS011;17834;52.992;8.856;2024-03-17T03:36:32;4.25;;;2.40;;
31206;SDS011;17834;52.992;8.856;2024-03-17T03:38:59;5.20;;;3.08;;
31206;SDS011;17834;52.992;8.856;2024-03-17T03:41:24;5.32;;;3.05;;
31206;SDS011;17834;52.992;8.856;2024-03-17T03:43:50;11.10;;;2.75;;
31206;SDS011;17834;52.992;8.856;2024-03-17T03:46:15;7.03;;;3.03;;
31206;SDS011;17834;52.992;8.856;2024-03-17T03:48:41;9.23;;;3.25;;
31206;SDS011;17834;52.992;8.856;2024-03-17T03:51:07;6.32;;;2.90;;
31206;SDS011;17834;52.992;8.856;2024-03-17T03:53:34;6.03;;;2.67;;
31206;SDS011;17834;52.992;8.856;2024-03-17T03:56:00;13.80;;;3.55;;
31206;SDS011;17834;52.992;8.856;2024-03-17T03:58:31;5.63;;;3.00;;
31206;SDS011;17834;52.992;8.856;2024-03-17T04:01:06;9.40;;;3.35;;
31206;SDS011;17834;52.992;8.856;2024-03-17T04:03:33;5.72;;;2.85;;
31206;SDS011;17834;52.992;8.856;2024-03-17T04:06:05;6.47;;;3.03;;
31206;SDS011;17834;52.992;8.856;2024-03-17T04:08:32;8.68;;;3.55;;
31206;SDS011;17834;52.992;8.856;2024-03-17T04:10:58;11.50;;;3.53;;
31206;SDS011;17834;52.992;8.856;2024-03-17T04:13:26;8.30;;;2.90;;
31206;SDS011;17834;52.992;8.856;2024-03-17T04:15:52;18.38;;;4.22;;
31206;SDS011;17834;52.992;8.856;2024-03-17T04:18:21;9.25;;;3.22;;
31206;SDS011;17834;52.992;8.856;2024-03-17T04:20:49;9.63;;;3.28;;
31206;SDS011;17834;52.992;8.856;2024-03-17T04:23:16;13.40;;;3.65;;
31206;SDS011;17834;52.992;8.856;2024-03-17T04:25:41;9.80;;;3.13;;
31206;SDS011;17834;52.992;8.856;2024-03-17T04:28:08;7.32;;;3.47;;
31206;SDS011;17834;52.992;8.856;2024-03-17T04:30:34;12.02;;;3.20;;
31206;SDS011;17834;52.992;8.856;2024-03-17T04:32:59;16.25;;;3.20;;
31206;SDS011;17834;52.992;8.856;2024-03-17T04:35:25;6.50;;;3.17;;
31206;SDS011;17834;52.992;8.856;2024-03-17T04:37:51;9.15;;;3.17;;
31206;SDS011;17834;52.992;8.856;2024-03-17T04:40:17;7.30;;;2.80;;
31206;SDS011;17834;52.992;8.856;2024-03-17T04:42:43;14.68;;;4.22;;
31206;SDS011;17834;52.992;8.856;2024-03-17T04:45:09;9.48;;;3.15;;
31206;SDS011;17834;52.992;8.856;2024-03-17T04:47:34;8.13;;;3.58;;
31206;SDS011;17834;52.992;8.856;2024-03-17T04:50:00;9.30;;;3.35;;
31206;SDS011;17834;52.992;8.856;2024-03-17T04:52:26;9.70;;;3.40;;
31206;SDS011;17834;52.992;8.856;2024-03-17T04:54:51;10.75;;;3.72;;
31206;SDS011;17834;52.992;8.856;2024-03-17T04:57:17;13.27;;;3.58;;
31206;SDS011;17834;52.992;8.856;2024-03-17T04:59:42;9.07;;;3.92;;
31206;SDS011;17834;52.992;8.856;2024-03-17T05:02:08;5.95;;;3.53;;
31206;SDS011;17834;52.992;8.856;2024-03-17T05:04:33;11.88;;;3.05;;
31206;SDS011;17834;52.992;8.856;2024-03-17T05:06:59;11.25;;;3.83;;
31206;SDS011;17834;52.992;8.856;2024-03-17T05:09:24;12.40;;;3.85;;
31206;SDS011;17834;52.992;8.856;2024-03-17T05:11:50;8.38;;;4.15;;
31206;SDS011;17834;52.992;8.856;2024-03-17T05:14:18;7.65;;;3.40;;
31206;SDS011;17834;52.992;8.856;2024-03-17T05:16:44;11.90;;;3.45;;
31206;SDS011;17834;52.992;8.856;2024-03-17T05:19:10;8.13;;;3.88;;
31206;SDS011;17834;52.992;8.856;2024-03-17T05:21:36;8.32;;;3.90;;
31206;SDS011;17834;52.992;8.856;2024-03-17T05:24:01;7.22;;;3.97;;
31206;SDS011;17834;52.992;8.856;2024-03-17T05:26:27;9.55;;;3.25;;
31206;SDS011;17834;52.992;8.856;2024-03-17T05:28:53;10.55;;;4.00;;
31206;SDS011;17834;52.992;8.856;2024-03-17T05:31:18;16.10;;;3.63;;
31206;SDS011;17834;52.992;8.856;2024-03-17T05:33:46;5.97;;;3.00;;
31206;SDS011;17834;52.992;8.856;2024-03-17T05:36:12;6.45;;;3.38;;
31206;SDS011;17834;52.992;8.856;2024-03-17T05:38:39;7.03;;;3.42;;
31206;SDS011;17834;52.992;8.856;2024-03-17T05:41:05;12.35;;;3.78;;
31206;SDS011;17834;52.992;8.856;2024-03-17T05:43:32;4.93;;;2.85;;
31206;SDS011;17834;52.992;8.856;2024-03-17T05:46:03;12.02;;;3.53;;
31206;SDS011;17834;52.992;8.856;2024-03-17T05:48:36;8.25;;;3.45;;
31206;SDS011;17834;52.992;8.856;2024-03-17T05:51:03;6.95;;;3.00;;
31206;SDS011;17834;52.992;8.856;2024-03-17T05:53:33;13.93;;;2.67;;
31206;SDS011;17834;52.992;8.856;2024-03-17T05:56:00;8.65;;;3.72;;
31206;SDS011;17834;52.992;8.856;2024-03-17T05:58:28;4.38;;;2.83;;
31206;SDS011;17834;52.992;8.856;2024-03-17T06:00:54;6.03;;;3.05;;
31206;SDS011;17834;52.992;8.856;2024-03-17T06:03:20;13.18;;;3.78;;
31206;SDS011;17834;52.992;8.856;2024-03-17T06:05:46;8.52;;;3.78;;
31206;SDS011;17834;52.992;8.856;2024-03-17T06:08:12;6.00;;;3.40;;
31206;SDS011;17834;52.992;8.856;2024-03-17T06:10:42;8.93;;;3.97;;
31206;SDS011;17834;52.992;8.856;2024-03-17T06:13:09;7.53;;;4.28;;
31206;SDS011;17834;52.992;8.856;2024-03-17T06:15:40;7.88;;;3.38;;
31206;SDS011;17834;52.992;8.856;2024-03-17T06:18:06;10.75;;;3.85;;
31206;SDS011;17834;52.992;8.856;2024-03-17T06:20:39;6.72;;;3.63;;
31206;SDS011;17834;52.992;8.856;2024-03-17T06:23:08;12.90;;;3.97;;
31206;SDS011;17834;52.992;8.856;2024-03-17T06:25:44;9.27;;;3.90;;
31206;SDS011;17834;52.992;8.856;2024-03-17T06:28:11;11.50;;;4.00;;
31206;SDS011;17834;52.992;8.856;2024-03-17T06:30:41;15.43;;;4.65;;
31206;SDS011;17834;52.992;8.856;2024-03-17T06:33:10;8.75;;;3.53;;
31206;SDS011;17834;52.992;8.856;2024-03-17T06:35:36;8.35;;;3.60;;
31206;SDS011;17834;52.992;8.856;2024-03-17T06:38:02;9.10;;;3.50;;
31206;SDS011;17834;52.992;8.856;2024-03-17T06:40:28;12.57;;;3.47;;
31206;SDS011;17834;52.992;8.856;2024-03-17T06:42:53;9.45;;;3.60;;
31206;SDS011;17834;52.992;8.856;2024-03-17T06:45:19;8.27;;;3.80;;
31206;SDS011;17834;52.992;8.856;2024-03-17T06:47:47;7.80;;;3.53;;
31206;SDS011;17834;52.992;8.856;2024-03-17T06:50:13;11.10;;;4.30;;
31206;SDS011;17834;52.992;8.856;2024-03-17T06:52:39;11.25;;;4.00;;
31206;SDS011;17834;52.992;8.856;2024-03-17T06:55:05;7.25;;;3.30;;
31206;SDS011;17834;52.992;8.856;2024-03-17T06:57:32;9.02;;;3.97;;
31206;SDS011;17834;52.992;8.856;2024-03-17T06:59:58;12.88;;;3.65;;
31206;SDS011;17834;52.992;8.856;2024-03-17T07:02:24;10.68;;;2.97;;
31206;SDS011;17834;52.992;8.856;2024-03-17T07:04:50;8.00;;;3.58;;
31206;SDS011;17834;52.992;8.856;2024-03-17T07:07:16;14.25;;;3.47;;
31206;SDS011;17834;52.992;8.856;2024-03-17T07:09:42;15.88;;;4.13;;
31206;SDS011;17834;52.992;8.856;2024-03-17T07:12:09;6.22;;;3.15;;
31206;SDS011;17834;52.992;8.856;2024-03-17T07:14:35;13.63;;;4.47;;
31206;SDS011;17834;52.992;8.856;2024-03-17T07:17:01;18.48;;;4.72;;
31206;SDS011;17834;52.992;8.856;2024-03-17T07:19:27;10.65;;;4.13;;
31206;SDS011;17834;52.992;8.856;2024-03-17T07:21:54;12.80;;;5.13;;
31206;SDS011;17834;52.992;8.856;2024-03-17T07:24:20;14.00;;;5.07;;
31206;SDS011;17834;52.992;8.856;2024-03-17T07:26:49;15.63;;;4.72;;
31206;SDS011;17834;52.992;8.856;2024-03-17T07:29:16;12.30;;;4.43;;
31206;SDS011;17834;52.992;8.856;2024-03-17T07:31:44;8.32;;;5.22;;
31206;SDS011;17834;52.992;8.856;2024-03-17T07:34:10;10.05;;;4.88;;
31206;SDS011;17834;52.992;8.856;2024-03-17T07:36:36;17.20;;;5.65;;
31206;SDS011;17834;52.992;8.856;2024-03-17T07:39:02;10.63;;;4.63;;
31206;SDS011;17834;52.992;8.856;2024-03-17T07:41:28;19.63;;;5.45;;
31206;SDS011;17834;52.992;8.856;2024-03-17T07:43:54;16.27;;;5.35;;
31206;SDS011;17834;52.992;8.856;2024-03-17T07:46:20;16.98;;;5.78;;
31206;SDS011;17834;52.992;8.856;2024-03-17T07:48:46;15.38;;;5.10;;
31206;SDS011;17834;52.992;8.856;2024-03-17T07:51:15;15.45;;;5.22;;
31206;SDS011;17834;52.992;8.856;2024-03-17T07:53:42;14.52;;;5.28;;
31206;SDS011;17834;52.992;8.856;2024-03-17T07:56:10;14.95;;;6.13;;
31206;SDS011;17834;52.992;8.856;2024-03-17T07:58:37;13.75;;;5.32;;
31206;SDS011;17834;52.992;8.856;2024-03-17T08:01:04;16.92;;;6.32;;
31206;SDS011;17834;52.992;8.856;2024-03-17T08:03:30;12.45;;;5.63;;
31206;SDS011;17834;52.992;8.856;2024-03-17T08:05:57;14.63;;;4.68;;
31206;SDS011;17834;52.992;8.856;2024-03-17T08:08:23;9.85;;;5.32;;
31206;SDS011;17834;52.992;8.856;2024-03-17T08:10:49;15.20;;;4.70;;
31206;SDS011;17834;52.992;8.856;2024-03-17T08:13:16;17.05;;;5.10;;
31206;SDS011;17834;52.992;8.856;2024-03-17T08:15:42;16.45;;;3.80;;
31206;SDS011;17834;52.992;8.856;2024-03-17T08:18:09;17.42;;;3.83;;
31206;SDS011;17834;52.992;8.856;2024-03-17T08:20:41;8.00;;;4.00;;
31206;SDS011;17834;52.992;8.856;2024-03-17T08:23:18;11.00;;;4.00;;
31206;SDS011;17834;52.992;8.856;2024-03-17T08:25:51;25.00;;;4.10;;
31206;SDS011;17834;52.992;8.856;2024-03-17T08:28:17;12.40;;;3.95;;
31206;SDS011;17834;52.992;8.856;2024-03-17T08:30:50;16.60;;;3.63;;
31206;SDS011;17834;52.992;8.856;2024-03-17T08:33:16;15.07;;;4.07;;
31206;SDS011;17834;52.992;8.856;2024-03-17T08:35:42;15.98;;;3.70;;
31206;SDS011;17834;52.992;8.856;2024-03-17T08:38:08;12.23;;;4.00;;
31206;SDS011;17834;52.992;8.856;2024-03-17T08:40:36;9.05;;;3.28;;
31206;SDS011;17834;52.992;8.856;2024-03-17T08:43:02;18.10;;;7.00;;
31206;SDS011;17834;52.992;8.856;2024-03-17T08:45:28;9.15;;;3.40;;
31206;SDS011;17834;52.992;8.856;2024-03-17T08:47:54;14.23;;;5.18;;
31206;SDS011;17834;52.992;8.856;2024-03-17T08:50:20;20.63;;;3.30;;
31206;SDS011;17834;52.992;8.856;2024-03-17T08:52:46;14.68;;;3.35;;
31206;SDS011;17834;52.992;8.856;2024-03-17T08:55:12;10.35;;;2.95;;
31206;SDS011;17834;52.992;8.856;2024-03-17T08:57:39;8.20;;;2.70;;
31206;SDS011;17834;52.992;8.856;2024-03-17T09:00:05;11.77;;;2.70;;
31206;SDS011;17834;52.992;8.856;2024-03-17T09:02:33;8.48;;;2.78;;
31206;SDS011;17834;52.992;8.856;2024-03-17T09:04:59;13.85;;;3.55;;
31206;SDS011;17834;52.992;8.856;2024-03-17T09:07:25;9.48;;;2.45;;
31206;SDS011;17834;52.992;8.856;2024-03-17T09:09:51;12.30;;;2.95;;
31206;SDS011;17834;52.992;8.856;2024-03-17T09:12:17;11.82;;;2.80;;
31206;SDS011;17834;52.992;8.856;2024-03-17T09:14:46;10.32;;;2.83;;
31206;SDS011;17834;52.992;8.856;2024-03-17T09:17:12;6.20;;;2.20;;
31206;SDS011;17834;52.992;8.856;2024-03-17T09:19:38;13.20;;;3.10;;
31206;SDS011;17834;52.992;8.856;2024-03-17T09:22:04;12.00;;;2.20;;
31206;SDS011;17834;52.992;8.856;2024-03-17T09:24:30;10.93;;;1.95;;
31206;SDS011;17834;52.992;8.856;2024-03-17T09:26:56;5.40;;;1.33;;
31206;SDS011;17834;52.992;8.856;2024-03-17T09:29:22;7.82;;;1.67;;
31206;SDS011;17834;52.992;8.856;2024-03-17T09:31:48;7.20;;;2.00;;
31206;SDS011;17834;52.992;8.856;2024-03-17T09:34:16;10.38;;;2.60;;
31206;SDS011;17834;52.992;8.856;2024-03-17T09:36:42;9.73;;;2.47;;
31206;SDS011;17834;52.992;8.856;2024-03-17T09:39:09;3.97;;;1.58;;
31206;SDS011;17834;52.992;8.856;2024-03-17T09:41:36;8.60;;;1.27;;
31206;SDS011;17834;52.992;8.856;2024-03-17T09:44:04;4.50;;;1.30;;
31206;SDS011;17834;52.992;8.856;2024-03-17T09:46:31;7.03;;;2.03;;
31206;SDS011;17834;52.992;8.856;2024-03-17T09:48:57;8.82;;;2.30;;
31206;SDS011;17834;52.992;8.856;2024-03-17T09:51:23;7.60;;;1.70;;
31206;SDS011;17834;52.992;8.856;2024-03-17T09:53:50;9.57;;;1.70;;
31206;SDS011;17834;52.992;8.856;2024-03-17T09:56:18;6.95;;;1.80;;
31206;SDS011;17834;52.992;8.856;2024-03-17T09:58:44;8.13;;;2.15;;
31206;SDS011;17834;52.992;8.856;2024-03-17T10:01:10;9.93;;;1.80;;
31206;SDS011;17834;52.992;8.856;2024-03-17T10:06:14;8.43;;;1.67;;
31206;SDS011;17834;52.992;8.856;2024-03-17T10:08:41;7.65;;;1.60;;
31206;SDS011;17834;52.992;8.856;2024-03-17T10:11:07;4.90;;;1.77;;
31206;SDS011;17834;52.992;8.856;2024-03-17T10:13:33;6.32;;;1.42;;
31206;SDS011;17834;52.992;8.856;2024-03-17T10:15:59;10.35;;;1.83;;
31206;SDS011;17834;52.992;8.856;2024-03-17T10:18:25;10.77;;;2.25;;
31206;SDS011;17834;52.992;8.856;2024-03-17T10:20:51;9.68;;;1.50;;
31206;SDS011;17834;52.992;8.856;2024-03-17T10:23:21;3.78;;;1.20;;
31206;SDS011;17834;52.992;8.856;2024-03-17T10:25:47;7.55;;;1.58;;
31206;SDS011;17834;52.992;8.856;2024-03-17T10:28:14;5.10;;;1.80;;
31206;SDS011;17834;52.992;8.856;2024-03-17T10:30:41;7.18;;;1.40;;
31206;SDS011;17834;52.992;8.856;2024-03-17T10:33:07;5.72;;;1.15;;
31206;SDS011;17834;52.992;8.856;2024-03-17T10:35:47;11.90;;;1.90;;
31206;SDS011;17834;52.992;8.856;2024-03-17T10:38:13;8.75;;;1.70;;
31206;SDS011;17834;52.992;8.856;2024-03-17T10:40:39;5.85;;;1.77;;
31206;SDS011;17834;52.992;8.856;2024-03-17T10:43:06;6.15;;;1.20;;
31206;SDS011;17834;52.992;8.856;2024-03-17T10:45:33;7.45;;;1.33;;
31206;SDS011;17834;52.992;8.856;2024-03-17T10:48:07;7.28;;;1.58;;
31206;SDS011;17834;52.992;8.856;2024-03-17T10:50:35;5.97;;;2.05;;
31206;SDS011;17834;52.992;8.856;2024-03-17T10:53:02;3.92;;;1.50;;
31206;SDS011;17834;52.992;8.856;2024-03-17T10:55:31;4.93;;;1.50;;
31206;SDS011;17834;52.992;8.856;2024-03-17T10:57:57;5.85;;;1.75;;
31206;SDS011;17834;52.992;8.856;2024-03-17T11:00:25;8.13;;;1.73;;
31206;SDS011;17834;52.992;8.856;2024-03-17T11:02:54;10.10;;;2.10;;
31206;SDS011;17834;52.992;8.856;2024-03-17T11:05:27;11.10;;;2.45;;
31206;SDS011;17834;52.992;8.856;2024-03-17T11:07:55;6.38;;;1.83;;
31206;SDS011;17834;52.992;8.856;2024-03-17T11:10:22;11.68;;;2.20;;
31206;SDS011;17834;52.992;8.856;2024-03-17T11:12:55;5.28;;;1.95;;
31206;SDS011;17834;52.992;8.856;2024-03-17T11:17:51;4.15;;;1.90;;
31206;SDS011;17834;52.992;8.856;2024-03-17T11:20:20;5.38;;;1.90;;
31206;SDS011;17834;52.992;8.856;2024-03-17T11:22:50;9.63;;;1.92;;
31206;SDS011;17834;52.992;8.856;2024-03-17T11:33:52;8.38;;;1.77;;
31206;SDS011;17834;52.992;8.856;2024-03-17T11:35:54;10.48;;;1.67;;
31206;SDS011;17834;52.992;8.856;2024-03-17T11:38:57;6.95;;;2.10;;
31206;SDS011;17834;52.992;8.856;2024-03-17T11:41:30;5.60;;;2.45;;
31206;SDS011;17834;52.992;8.856;2024-03-17T11:46:41;9.63;;;2.63;;
31206;SDS011;17834;52.992;8.856;2024-03-17T11:49:12;4.28;;;1.55;;
31206;SDS011;17834;52.992;8.856;2024-03-17T11:51:42;7.03;;;2.03;;
31206;SDS011;17834;52.992;8.856;2024-03-17T11:54:11;5.82;;;2.00;;
31206;SDS011;17834;52.992;8.856;2024-03-17T11:56:38;4.18;;;2.25;;
31206;SDS011;17834;52.992;8.856;2024-03-17T11:59:05;7.43;;;1.67;;
31206;SDS011;17834;52.992;8.856;2024-03-17T12:01:34;7.32;;;1.50;;
31206;SDS011;17834;52.992;8.856;2024-03-17T12:04:00;4.13;;;1.40;;
31206;SDS011;17834;52.992;8.856;2024-03-17T12:06:30;7.28;;;2.80;;
31206;SDS011;17834;52.992;8.856;2024-03-17T12:09:07;7.03;;;1.88;;
31206;SDS011;17834;52.992;8.856;2024-03-17T12:11:34;6.72;;;2.08;;
31206;SDS011;17834;52.992;8.856;2024-03-17T12:14:08;5.15;;;1.63;;
31206;SDS011;17834;52.992;8.856;2024-03-17T12:16:35;6.88;;;1.90;;
31206;SDS011;17834;52.992;8.856;2024-03-17T12:19:07;7.25;;;2.25;;
31206;SDS011;17834;52.992;8.856;2024-03-17T12:21:34;9.57;;;1.98;;
31206;SDS011;17834;52.992;8.856;2024-03-17T12:24:00;3.28;;;1.48;;
31206;SDS011;17834;52.992;8.856;2024-03-17T12:26:26;7.20;;;2.97;;
31206;SDS011;17834;52.992;8.856;2024-03-17T12:28:52;5.25;;;1.88;;
31206;SDS011;17834;52.992;8.856;2024-03-17T12:31:18;11.23;;;2.25;;
31206;SDS011;17834;52.992;8.856;2024-03-17T12:33:44;6.07;;;1.80;;
31206;SDS011;17834;52.992;8.856;2024-03-17T12:36:10;6.60;;;2.05;;
31206;SDS011;17834;52.992;8.856;2024-03-17T12:38:38;3.35;;;1.50;;
31206;SDS011;17834;52.992;8.856;2024-03-17T12:41:04;6.68;;;1.80;;
31206;SDS011;17834;52.992;8.856;2024-03-17T12:43:34;4.10;;;1.63;;
31206;SDS011;17834;52.992;8.856;2024-03-17T12:46:00;3.25;;;1.42;;
31206;SDS011;17834;52.992;8.856;2024-03-17T12:48:26;9.38;;;2.28;;
31206;SDS011;17834;52.992;8.856;2024-03-17T12:50:52;6.47;;;1.80;;
31206;SDS011;17834;52.992;8.856;2024-03-17T12:53:18;4.07;;;1.55;;
31206;SDS011;17834;52.992;8.856;2024-03-17T12:55:52;3.05;;;1.63;;
31206;SDS011;17834;52.992;8.856;2024-03-17T12:58:37;9.50;;;2.60;;
31206;SDS011;17834;52.992;8.856;2024-03-17T13:01:22;5.68;;;1.80;;
31206;SDS011;17834;52.992;8.856;2024-03-17T13:03:48;7.35;;;2.33;;
31206;SDS011;17834;52.992;8.856;2024-03-17T13:06:21;5.93;;;2.00;;
31206;SDS011;17834;52.992;8.856;2024-03-17T13:08:49;5.65;;;1.90;;
31206;SDS011;17834;52.992;8.856;2024-03-17T13:11:15;7.60;;;2.13;;
31206;SDS011;17834;52.992;8.856;2024-03-17T13:13:41;6.38;;;2.53;;
31206;SDS011;17834;52.992;8.856;2024-03-17T13:16:07;8.10;;;1.75;;
31206;SDS011;17834;52.992;8.856;2024-03-17T13:18:34;3.78;;;1.63;;
31206;SDS011;17834;52.992;8.856;2024-03-17T13:21:00;4.10;;;1.55;;
31206;SDS011;17834;52.992;8.856;2024-03-17T13:23:26;5.60;;;1.67;;
31206;SDS011;17834;52.992;8.856;2024-03-17T13:25:54;2.28;;;1.40;;
31206;SDS011;17834;52.992;8.856;2024-03-17T13:28:20;6.18;;;2.13;;
31206;SDS011;17834;52.992;8.856;2024-03-17T13:30:46;4.70;;;1.80;;
31206;SDS011;17834;52.992;8.856;2024-03-17T13:33:12;6.32;;;1.67;;
31206;SDS011;17834;52.992;8.856;2024-03-17T13:35:39;6.25;;;1.80;;
31206;SDS011;17834;52.992;8.856;2024-03-17T13:38:06;7.10;;;1.92;;
31206;SDS011;17834;52.992;8.856;2024-03-17T13:40:33;7.32;;;1.88;;
31206;SDS011;17834;52.992;8.856;2024-03-17T13:42:59;5.13;;;2.10;;
31206;SDS011;17834;52.992;8.856;2024-03-17T13:45:27;12.68;;;2.47;;
31206;SDS011;17834;52.992;8.856;2024-03-17T13:47:56;8.95;;;1.88;;
31206;SDS011;17834;52.992;8.856;2024-03-17T13:50:22;7.88;;;2.40;;
31206;SDS011;17834;52.992;8.856;2024-03-17T13:52:48;8.05;;;1.77;;
31206;SDS011;17834;52.992;8.856;2024-03-17T13:55:15;4.38;;;1.70;;
31206;SDS011;17834;52.992;8.856;2024-03-17T13:57:45;4.47;;;1.63;;
31206;SDS011;17834;52.992;8.856;2024-03-17T14:00:12;5.13;;;1.63;;
31206;SDS011;17834;52.992;8.856;2024-03-17T14:02:44;6.65;;;1.65;;
31206;SDS011;17834;52.992;8.856;2024-03-17T14:05:13;3.45;;;1.77;;
31206;SDS011;17834;52.992;8.856;2024-03-17T14:07:40;6.07;;;2.17;;
31206;SDS011;17834;52.992;8.856;2024-03-17T14:10:06;7.05;;;2.10;;
31206;SDS011;17834;52.992;8.856;2024-03-17T14:12:33;5.18;;;1.70;;
31206;SDS011;17834;52.992;8.856;2024-03-17T14:14:59;2.80;;;1.35;;
31206;SDS011;17834;52.992;8.856;2024-03-17T14:17:25;3.60;;;1.80;;
31206;SDS011;17834;52.992;8.856;2024-03-17T14:19:51;4.30;;;1.80;;
31206;SDS011;17834;52.992;8.856;2024-03-17T14:22:18;5.55;;;1.10;;
31206;SDS011;17834;52.992;8.856;2024-03-17T14:24:44;6.00;;;1.40;;
31206;SDS011;17834;52.992;8.856;2024-03-17T14:27:11;7.10;;;1.50;;
31206;SDS011;17834;52.992;8.856;2024-03-17T14:29:38;7.35;;;2.10;;
31206;SDS011;17834;52.992;8.856;2024-03-17T14:32:04;6.30;;;1.85;;
31206;SDS011;17834;52.992;8.856;2024-03-17T14:34:30;5.18;;;2.05;;
31206;SDS011;17834;52.992;8.856;2024-03-17T14:37:00;2.85;;;1.58;;
31206;SDS011;17834;52.992;8.856;2024-03-17T14:39:27;5.45;;;1.55;;
31206;SDS011;17834;52.992;8.856;2024-03-17T14:41:54;4.13;;;1.30;;
31206;SDS011;17834;52.992;8.856;2024-03-17T14:44:20;4.43;;;1.33;;
31206;SDS011;17834;52.992;8.856;2024-03-17T14:46:46;8.48;;;1.73;;
31206;SDS011;17834;52.992;8.856;2024-03-17T14:49:12;3.85;;;1.30;;
31206;SDS011;17834;52.992;8.856;2024-03-17T14:51:38;5.80;;;1.55;;
31206;SDS011;17834;52.992;8.856;2024-03-17T14:54:04;4.65;;;1.35;;
31206;SDS011;17834;52.992;8.856;2024-03-17T14:56:30;6.82;;;1.30;;
31206;SDS011;17834;52.992;8.856;2024-03-17T14:58:56;4.95;;;1.42;;